createdAt,value
2023-01-17T00:01:50.551Z,35.47
2023-01-17T00:04:36.387Z,33.88
2023-01-17T00:07:22.267Z,37.72
2023-01-17T00:09:57.078Z,34.97
2023-01-17T00:12:28.496Z,34.97
2023-01-17T00:14:56.428Z,34.28
2023-01-17T00:17:24.026Z,39.40
2023-01-17T00:20:09.906Z,34.00
2023-01-17T00:22:55.893Z,36.08
2023-01-17T00:25:46.465Z,34.80
2023-01-17T00:28:13.886Z,34.30
2023-01-17T00:30:40.960Z,32.83
2023-01-17T00:33:08.017Z,33.53
2023-01-17T00:35:35.148Z,37.85
2023-01-17T00:38:05.216Z,35.63
2023-01-17T00:40:33.010Z,40.55
2023-01-17T00:43:18.957Z,35.17
2023-01-17T00:46:05.090Z,40.35
2023-01-17T00:48:51.703Z,30.20
2023-01-17T00:51:37.447Z,34.10
2023-01-17T00:54:23.405Z,42.70
2023-01-17T00:57:09.402Z,36.03
2023-01-17T00:59:55.596Z,37.00
2023-01-17T01:02:41.865Z,32.85
2023-01-17T01:05:27.927Z,33.78
2023-01-17T01:08:13.839Z,36.25
2023-01-17T01:10:59.984Z,35.83
2023-01-17T01:13:46.544Z,33.92
2023-01-17T01:16:32.650Z,30.73
2023-01-17T01:19:18.573Z,31.45
2023-01-17T01:22:04.735Z,36.42
2023-01-17T01:24:50.742Z,33.25
2023-01-17T01:27:36.703Z,27.35
2023-01-17T01:30:22.734Z,32.17
2023-01-17T01:33:08.830Z,31.15
2023-01-17T01:35:37.133Z,30.92
2023-01-17T01:38:04.794Z,32.97
2023-01-17T01:40:31.953Z,31.40
2023-01-17T01:43:00.545Z,29.98
2023-01-17T01:45:32.266Z,39.30
2023-01-17T01:48:05.737Z,33.45
2023-01-17T01:50:34.605Z,35.10
2023-01-17T01:53:02.635Z,32.10
2023-01-17T01:55:31.703Z,35.80
2023-01-17T01:58:00.973Z,33.63
2023-01-17T02:00:36.634Z,32.75
2023-01-17T02:03:06.315Z,30.73
2023-01-17T02:05:34.404Z,33.15
2023-01-17T02:08:07.782Z,32.47
2023-01-17T02:10:36.426Z,36.13
2023-01-17T02:13:04.158Z,30.90
2023-01-17T02:15:51.584Z,33.30
2023-01-17T02:18:32.379Z,32.22
2023-01-17T02:21:17.999Z,29.25
2023-01-17T02:23:56.532Z,34.90
2023-01-17T02:26:42.066Z,34.38
2023-01-17T02:29:28.102Z,31.52
2023-01-17T02:32:04.436Z,32.28
2023-01-17T02:34:41.302Z,36.60
2023-01-17T02:37:10.652Z,35.30
2023-01-17T02:39:40.739Z,31.48
2023-01-17T02:42:14.380Z,34.17
2023-01-17T02:44:42.398Z,33.03
2023-01-17T02:47:24.918Z,34.58
2023-01-17T02:49:57.536Z,35.80
2023-01-17T02:52:46.838Z,34.58
2023-01-17T02:55:16.728Z,40.17
2023-01-17T02:58:07.100Z,41.42
2023-01-17T03:00:39.703Z,39.13
2023-01-17T03:03:18.819Z,40.67
2023-01-17T03:05:54.879Z,37.35
2023-01-17T03:08:22.064Z,36.65
2023-01-17T03:10:49.243Z,34.40
2023-01-17T03:13:16.345Z,36.03
2023-01-17T03:15:43.852Z,42.72
2023-01-17T03:18:15.206Z,37.22
2023-01-17T03:23:09.368Z,32.05
2023-01-17T03:25:36.480Z,28.30
2023-01-17T03:28:03.609Z,32.88
2023-01-17T03:30:30.819Z,34.60
2023-01-17T03:32:57.900Z,32.10
2023-01-17T03:35:25.012Z,37.78
2023-01-17T03:37:52.164Z,37.25
2023-01-17T03:40:19.320Z,37.13
2023-01-17T03:42:46.442Z,31.92
2023-01-17T03:45:13.611Z,32.25
2023-01-17T03:47:40.710Z,31.73
2023-01-17T03:50:08.168Z,30.88
2023-01-17T03:52:35.337Z,37.53
2023-01-17T03:55:02.722Z,33.92
2023-01-17T03:57:29.867Z,32.80
2023-01-17T03:59:57.012Z,35.15
2023-01-17T04:02:24.584Z,28.00
2023-01-17T04:04:51.760Z,31.73
2023-01-17T04:07:18.963Z,31.83
2023-01-17T04:09:46.128Z,33.53
2023-01-17T04:12:13.328Z,32.95
2023-01-17T04:14:41.234Z,35.88
2023-01-17T04:17:11.451Z,47.00
2023-01-17T04:19:38.858Z,36.55
2023-01-17T04:22:05.996Z,33.10
2023-01-17T04:24:33.104Z,38.35
2023-01-17T04:27:00.283Z,35.63
2023-01-17T04:29:27.416Z,36.05
2023-01-17T04:31:54.608Z,34.55
2023-01-17T04:34:21.721Z,39.95
2023-01-17T04:36:48.923Z,36.75
2023-01-17T04:39:16.011Z,39.33
2023-01-17T04:41:43.875Z,36.70
2023-01-17T04:44:11.087Z,39.50
2023-01-17T04:46:38.174Z,40.60
2023-01-17T04:49:05.294Z,37.30
2023-01-17T04:51:32.465Z,39.65
2023-01-17T04:53:59.541Z,45.63
2023-01-17T04:56:26.658Z,41.05
2023-01-17T04:58:53.855Z,35.65
2023-01-17T05:01:21.086Z,39.30
2023-01-17T05:03:48.224Z,36.28
2023-01-17T05:06:15.384Z,39.33
2023-01-17T05:08:42.467Z,39.60
2023-01-17T05:11:09.601Z,43.25
2023-01-17T05:13:36.779Z,44.20
2023-01-17T05:16:04.520Z,42.20
2023-01-17T05:18:31.614Z,41.80
2023-01-17T05:21:03.029Z,43.95
2023-01-17T05:23:30.123Z,37.75
2023-01-17T05:25:57.266Z,48.17
2023-01-17T05:28:24.549Z,48.90
2023-01-17T05:30:51.661Z,46.42
2023-01-17T05:33:18.765Z,46.10
2023-01-17T05:35:45.917Z,40.97
2023-01-17T05:38:13.002Z,49.75
2023-01-17T05:40:40.138Z,44.67
2023-01-17T05:43:07.315Z,47.35
2023-01-17T05:45:34.523Z,47.40
2023-01-17T05:48:02.018Z,53.42
2023-01-17T05:50:31.122Z,52.88
2023-01-17T05:52:59.546Z,53.38
2023-01-17T05:55:27.279Z,55.17
2023-01-17T05:57:54.982Z,49.05
2023-01-17T06:00:22.446Z,50.92
2023-01-17T06:02:50.069Z,50.38
2023-01-17T06:05:17.417Z,51.75
2023-01-17T06:07:45.528Z,47.92
2023-01-17T06:10:14.379Z,53.00
2023-01-17T06:12:42.110Z,53.28
2023-01-17T06:15:09.758Z,60.35
2023-01-17T06:17:37.289Z,51.08
2023-01-17T06:20:06.126Z,50.00
2023-01-17T06:22:33.672Z,50.22
2023-01-17T06:25:00.763Z,51.28
2023-01-17T06:27:28.295Z,53.72
2023-01-17T06:29:55.438Z,53.78
2023-01-17T06:32:22.565Z,56.55
2023-01-17T06:34:49.723Z,53.83
2023-01-17T06:37:16.931Z,58.75
2023-01-17T06:39:44.037Z,51.88
2023-01-17T06:42:11.188Z,55.30
2023-01-17T06:44:38.433Z,57.42
2023-01-17T06:47:05.524Z,50.92
2023-01-17T06:49:32.660Z,60.78
2023-01-17T06:51:59.743Z,50.85
2023-01-17T06:54:27.085Z,58.25
2023-01-17T06:56:54.343Z,53.40
2023-01-17T06:59:21.695Z,56.15
2023-01-17T07:01:48.814Z,54.20
2023-01-17T07:04:16.054Z,54.72
2023-01-17T07:06:43.174Z,50.35
2023-01-17T07:09:10.363Z,48.40
2023-01-17T07:11:37.513Z,56.10
2023-01-17T07:14:04.633Z,49.35
2023-01-17T07:16:31.761Z,53.55
2023-01-17T07:18:59.215Z,54.60
2023-01-17T07:21:26.270Z,55.90
2023-01-17T07:23:53.325Z,56.15
2023-01-17T07:26:20.510Z,58.55
2023-01-17T07:28:47.606Z,51.90
2023-01-17T07:31:14.716Z,63.22
2023-01-17T07:33:41.888Z,52.25
2023-01-17T07:36:09.625Z,53.60
2023-01-17T07:38:36.925Z,61.17
2023-01-17T07:41:04.124Z,45.33
2023-01-17T07:43:31.227Z,53.50
2023-01-17T07:46:00.430Z,50.40
2023-01-17T07:48:29.086Z,47.58
2023-01-17T07:50:56.901Z,55.00
2023-01-17T07:53:25.402Z,57.35
2023-01-17T07:55:52.733Z,51.40
2023-01-17T07:58:19.989Z,51.55
2023-01-17T08:00:47.460Z,52.60
2023-01-17T08:03:15.369Z,50.95
2023-01-17T08:05:54.431Z,53.92
2023-01-17T08:08:21.590Z,51.53
2023-01-17T08:10:49.468Z,51.28
2023-01-17T08:13:16.573Z,54.72
2023-01-17T08:15:43.995Z,54.47
2023-01-17T08:18:11.151Z,56.08
2023-01-17T08:20:38.284Z,56.22
2023-01-17T08:23:05.427Z,59.63
2023-01-17T08:25:36.873Z,61.38
2023-01-17T08:28:04.022Z,58.97
2023-01-17T08:30:31.214Z,57.70
2023-01-17T08:32:58.282Z,55.63
2023-01-17T08:35:25.385Z,54.35
2023-01-17T08:37:54.483Z,59.08
2023-01-17T08:40:22.107Z,61.83
2023-01-17T08:42:56.308Z,54.85
2023-01-17T08:45:23.738Z,56.63
2023-01-17T08:47:51.164Z,55.75
2023-01-17T08:50:20.767Z,63.30
2023-01-17T08:52:53.275Z,59.25
2023-01-17T08:55:20.484Z,59.75
2023-01-17T08:57:47.942Z,60.17
2023-01-17T09:00:15.292Z,55.85
2023-01-17T09:02:42.583Z,62.80
2023-01-17T09:05:09.980Z,54.22
2023-01-17T09:07:37.039Z,68.72
2023-01-17T09:10:04.388Z,67.97
2023-01-17T09:12:36.725Z,67.13
2023-01-17T09:15:05.186Z,72.53
2023-01-17T09:17:32.273Z,64.68
2023-01-17T09:19:59.453Z,68.03
2023-01-17T09:22:26.995Z,62.80
2023-01-17T09:24:54.653Z,67.70
2023-01-17T09:27:21.798Z,68.28
2023-01-17T09:29:49.037Z,78.93
2023-01-17T09:32:17.077Z,64.70
2023-01-17T09:34:44.397Z,62.72
2023-01-17T09:37:11.599Z,66.50
2023-01-17T09:39:38.721Z,66.55
2023-01-17T09:42:38.493Z,59.92
2023-01-17T09:45:05.918Z,64.07
2023-01-17T09:47:42.767Z,61.58
2023-01-17T09:50:20.675Z,65.43
2023-01-17T09:52:47.936Z,62.05
2023-01-17T09:55:15.742Z,66.07
2023-01-17T09:57:55.148Z,64.50
2023-01-17T10:00:40.950Z,60.00
2023-01-17T10:03:26.874Z,62.58
2023-01-17T10:06:12.569Z,65.80
2023-01-17T10:08:39.779Z,68.57
2023-01-17T10:11:29.944Z,64.22
2023-01-17T10:14:09.359Z,71.38
2023-01-17T10:16:54.374Z,63.67
2023-01-17T10:19:24.389Z,65.38
2023-01-17T10:22:09.473Z,63.25
2023-01-17T10:24:49.918Z,68.55
2023-01-17T10:27:29.669Z,69.60
2023-01-17T10:29:56.841Z,72.70
2023-01-17T10:32:25.279Z,64.20
2023-01-17T10:34:52.908Z,65.88
2023-01-17T10:37:32.370Z,80.55
2023-01-17T10:40:03.325Z,72.03
2023-01-17T10:42:38.763Z,74.32
2023-01-17T10:45:28.745Z,70.53
2023-01-17T10:48:03.246Z,70.40
2023-01-17T10:50:33.319Z,72.22
2023-01-17T10:53:09.032Z,77.22
2023-01-17T10:56:05.761Z,64.50
2023-01-17T10:58:32.999Z,68.05
2023-01-17T11:01:01.675Z,74.15
2023-01-17T11:03:29.298Z,70.40
2023-01-17T11:06:16.253Z,74.43
2023-01-17T11:08:52.452Z,71.03
2023-01-17T11:11:21.104Z,71.78
2023-01-17T11:13:49.219Z,69.25
2023-01-17T11:16:21.409Z,71.22
2023-01-17T11:18:49.451Z,81.60
2023-01-17T15:48:35.547Z,89.15
2023-01-17T15:51:04.761Z,93.50
2023-01-17T15:53:33.266Z,83.03
2023-01-17T15:56:00.801Z,76.18
2023-01-17T15:58:29.501Z,88.57
2023-01-17T16:00:56.946Z,74.30
2023-01-17T16:03:29.414Z,75.93
2023-01-17T16:05:58.150Z,73.97
2023-01-17T16:08:30.202Z,68.45
2023-01-17T16:11:02.006Z,73.32
2023-01-17T16:13:33.525Z,72.05
2023-01-17T16:16:14.881Z,73.78
2023-01-17T16:18:42.720Z,77.68
2023-01-17T16:21:12.569Z,70.43
2023-01-17T16:23:39.659Z,69.15
2023-01-17T16:26:10.794Z,70.20
2023-01-17T16:28:38.694Z,71.97
2023-01-17T16:31:05.919Z,72.10
2023-01-17T16:33:33.160Z,67.07
2023-01-17T16:38:42.383Z,64.30
2023-01-17T16:41:09.666Z,77.10
2023-01-17T16:43:37.238Z,64.22
2023-01-17T16:46:04.410Z,65.22
2023-01-17T16:48:31.485Z,69.70
2023-01-17T16:50:59.287Z,67.03
2023-01-17T16:53:28.242Z,65.85
2023-01-17T16:55:59.296Z,67.15
2023-01-17T16:58:26.414Z,61.88
2023-01-17T17:00:55.481Z,59.30
2023-01-17T17:03:22.714Z,56.22
2023-01-17T17:06:00.694Z,64.50
2023-01-17T17:08:31.181Z,64.50
2023-01-17T17:11:13.273Z,66.03
2023-01-17T17:13:41.094Z,51.45
2023-01-17T17:16:12.882Z,50.67
2023-01-17T17:18:46.841Z,54.00
2023-01-17T21:22:20.683Z,50.63
2023-01-17T21:24:47.943Z,53.95
2023-01-17T21:27:17.019Z,53.80
2023-01-17T21:29:44.172Z,59.92
2023-01-17T21:32:11.279Z,54.97
2023-01-17T21:34:38.354Z,57.63
2023-01-17T21:37:05.521Z,53.15
2023-01-17T21:39:32.660Z,59.75
2023-01-17T21:41:59.747Z,61.28
2023-01-17T21:44:27.166Z,50.13
2023-01-17T21:46:56.508Z,50.50
2023-01-17T21:49:23.783Z,53.50
2023-01-17T21:51:53.738Z,55.47
2023-01-17T21:54:41.476Z,57.08
2023-01-17T21:57:27.607Z,64.65
2023-01-17T21:59:54.711Z,65.07
2023-01-17T22:02:22.203Z,65.78
2023-01-17T22:04:49.419Z,63.55
2023-01-17T22:07:16.832Z,72.13
